createdAt,value
2018-02-22T00:00:36.734Z,102046
2018-02-22T00:03:04.870Z,102042
2018-02-22T00:05:33.795Z,102041
2018-02-22T00:08:01.926Z,102030
2018-02-22T00:10:30.874Z,102030
2018-02-22T00:12:59.013Z,102039
2018-02-22T00:15:27.234Z,102029
2018-02-22T00:17:55.365Z,102035
2018-02-22T00:20:23.602Z,102037
2018-02-22T00:22:51.747Z,102041
2018-02-22T00:25:19.919Z,102035
2018-02-22T00:27:48.058Z,102035
2018-02-22T00:30:16.193Z,102032
2018-02-22T00:32:44.359Z,102038
2018-02-22T00:35:12.495Z,102035
2018-02-22T00:37:40.650Z,102035
2018-02-22T00:40:08.806Z,102039
2018-02-22T00:42:37.822Z,102030
2018-02-22T00:45:06.000Z,102020
2018-02-22T00:47:34.138Z,102030
2018-02-22T00:50:03.068Z,102024
2018-02-22T00:52:31.201Z,102027
2018-02-22T00:55:00.131Z,102014
2018-02-22T00:57:28.272Z,102011
2018-02-22T00:59:57.090Z,102018
2018-02-22T01:02:25.259Z,102012
2018-02-22T01:04:53.402Z,102019
2018-02-22T01:07:22.430Z,102017
2018-02-22T01:09:50.917Z,102011
2018-02-22T01:12:19.083Z,102018
2018-02-22T01:14:47.250Z,102011
2018-02-22T01:17:15.410Z,102003
2018-02-22T01:19:43.546Z,102001
2018-02-22T01:22:11.766Z,102016
2018-02-22T01:24:40.050Z,102022
2018-02-22T01:27:08.221Z,102018
2018-02-22T01:29:36.514Z,102014
2018-02-22T01:32:04.766Z,102020
2018-02-22T01:34:32.907Z,102012
2018-02-22T01:37:01.861Z,102022
2018-02-22T01:39:29.991Z,102014
2018-02-22T01:41:58.141Z,102013
2018-02-22T01:44:27.070Z,102014
2018-02-22T01:46:55.237Z,102032
2018-02-22T01:49:23.398Z,102017
2018-02-22T01:51:51.542Z,102022
2018-02-22T01:54:20.462Z,102029
2018-02-22T01:56:48.599Z,102015
2018-02-22T01:59:17.526Z,102011
2018-02-22T02:01:45.694Z,102017
2018-02-22T02:04:13.826Z,102021
2018-02-22T02:06:41.970Z,102013
2018-02-22T02:09:10.139Z,102013
2018-02-22T02:11:38.273Z,102016
2018-02-22T02:14:06.473Z,102014
2018-02-22T02:16:34.623Z,102020
2018-02-22T02:19:02.786Z,102011
2018-02-22T02:21:31.817Z,102009
2018-02-22T02:23:59.960Z,102007
2018-02-22T02:26:28.110Z,102011
2018-02-22T02:28:57.048Z,102015
2018-02-22T02:31:25.205Z,102012
2018-02-22T02:33:53.333Z,102007
2018-02-22T02:36:21.474Z,102006
2018-02-22T02:38:49.643Z,102002
2018-02-22T02:41:17.804Z,102002
2018-02-22T02:43:45.982Z,102010
2018-02-22T02:46:14.122Z,101999
2018-02-22T02:48:43.051Z,102007
2018-02-22T02:51:11.183Z,101997
2018-02-22T02:53:39.388Z,101997
2018-02-22T02:56:07.543Z,101993
2018-02-22T02:58:35.738Z,101996
2018-02-22T03:01:03.904Z,102000
2018-02-22T03:03:32.042Z,101994
2018-02-22T03:06:00.969Z,101999
2018-02-22T03:08:29.115Z,101989
2018-02-22T03:10:57.723Z,101990
2018-02-22T03:13:25.898Z,101990
2018-02-22T03:15:54.074Z,101993
2018-02-22T03:18:22.216Z,101982
2018-02-22T03:20:50.369Z,101973
2018-02-22T03:23:19.269Z,101983
2018-02-22T03:25:48.205Z,101973
2018-02-22T03:28:16.763Z,101967
2018-02-22T03:30:44.903Z,101976
2018-02-22T03:33:13.938Z,101983
2018-02-22T03:35:42.070Z,101979
2018-02-22T03:38:10.233Z,101986
2018-02-22T03:40:38.390Z,101969
2018-02-22T03:43:06.527Z,101976
2018-02-22T03:45:34.701Z,101981
2018-02-22T03:48:02.878Z,101981
2018-02-22T03:50:31.026Z,101977
2018-02-22T03:52:59.191Z,101989
2018-02-22T03:55:28.578Z,101983
2018-02-22T03:57:57.492Z,101984
2018-02-22T04:00:25.631Z,101990
2018-02-22T04:02:53.802Z,101983
2018-02-22T04:05:21.966Z,101986
2018-02-22T04:07:50.099Z,101988
2018-02-22T04:10:18.259Z,101985
2018-02-22T04:12:46.454Z,101989
2018-02-22T04:15:14.606Z,101991
2018-02-22T04:17:42.765Z,101973
2018-02-22T04:20:11.674Z,101987
2018-02-22T04:22:39.804Z,101995
2018-02-22T04:25:07.965Z,101998
2018-02-22T04:27:36.142Z,102003
2018-02-22T04:30:04.277Z,101986
2018-02-22T04:32:32.417Z,101995
2018-02-22T04:35:01.200Z,102003
2018-02-22T04:37:30.122Z,101998
2018-02-22T04:39:58.298Z,102005
2018-02-22T04:42:26.482Z,102010
2018-02-22T04:44:54.623Z,102004
2018-02-22T04:47:22.757Z,102004
2018-02-22T04:49:50.994Z,102012
2018-02-22T04:52:19.162Z,102003
2018-02-22T04:54:47.322Z,102002
2018-02-22T04:57:15.455Z,102004
2018-02-22T04:59:44.457Z,102009
2018-02-22T05:02:13.371Z,102008
2018-02-22T05:04:41.534Z,101999
2018-02-22T05:07:09.669Z,102007
2018-02-22T05:09:37.826Z,102002
2018-02-22T05:12:06.082Z,102001
2018-02-22T05:14:34.228Z,102004
2018-02-22T05:17:03.143Z,102004
2018-02-22T05:19:31.287Z,102012
2018-02-22T05:21:59.445Z,102005
2018-02-22T05:24:28.373Z,102005
2018-02-22T05:26:56.560Z,102009
2018-02-22T05:29:24.741Z,102006
2018-02-22T05:31:53.000Z,102015
2018-02-22T05:34:21.230Z,102011
2018-02-22T05:36:49.433Z,102012
2018-02-22T05:39:17.603Z,102014
2018-02-22T05:41:45.794Z,102023
2018-02-22T05:44:13.960Z,102017
2018-02-22T05:46:42.102Z,102011
2018-02-22T05:49:11.045Z,102024
2018-02-22T05:51:39.186Z,102025
2018-02-22T05:54:07.326Z,102019
2018-02-22T05:56:36.625Z,102016
2018-02-22T05:59:05.550Z,102010
2018-02-22T06:01:33.693Z,102008
2018-02-22T06:04:02.631Z,102016
2018-02-22T06:06:30.794Z,102016
2018-02-22T06:08:58.964Z,102016
2018-02-22T06:11:27.135Z,102012
2018-02-22T06:13:55.282Z,101997
2018-02-22T06:16:24.224Z,102004
2018-02-22T06:18:52.403Z,102010
2018-02-22T06:21:20.542Z,102013
2018-02-22T06:23:48.695Z,102011
2018-02-22T06:26:16.856Z,102011
2018-02-22T06:28:45.902Z,102019
2018-02-22T06:31:14.048Z,102025
2018-02-22T06:33:42.211Z,102015
2018-02-22T06:36:10.361Z,102019
2018-02-22T06:38:39.622Z,102013
2018-02-22T06:41:07.786Z,102019
2018-02-22T06:43:35.941Z,102026
2018-02-22T06:46:04.097Z,102011
2018-02-22T06:48:32.246Z,102013
2018-02-22T06:51:00.467Z,102016
2018-02-22T06:53:28.598Z,102022
2018-02-22T06:55:57.502Z,102022
2018-02-22T06:58:25.668Z,102035
2018-02-22T07:00:54.593Z,102040
2018-02-22T07:03:22.771Z,102034
2018-02-22T07:05:50.936Z,102034
2018-02-22T07:08:19.069Z,102034
2018-02-22T07:10:47.985Z,102043
2018-02-22T07:13:16.146Z,102041
2018-02-22T07:15:45.888Z,102047
2018-02-22T07:18:14.018Z,102049
2018-02-22T07:20:42.943Z,102047
2018-02-22T07:23:16.888Z,102055
2018-02-22T07:25:39.275Z,102052
2018-02-22T07:28:07.416Z,102059
2018-02-22T07:30:36.314Z,102050
2018-02-22T07:33:05.239Z,102057
2018-02-22T07:35:34.073Z,102061
2018-02-22T07:38:02.252Z,102065
2018-02-22T07:40:30.387Z,102057
2018-02-22T07:42:58.555Z,102045
2018-02-22T07:45:26.734Z,102065
2018-02-22T07:47:55.585Z,102061
2018-02-22T07:50:24.491Z,102069
2018-02-22T07:52:52.682Z,102061
2018-02-22T07:55:20.826Z,102061
2018-02-22T07:57:48.963Z,102055
2018-02-22T08:00:17.139Z,102061
2018-02-22T08:02:45.274Z,102067
2018-02-22T08:05:13.411Z,102060
2018-02-22T08:07:41.570Z,102063
2018-02-22T08:10:10.496Z,102052
2018-02-22T08:12:38.674Z,102058
2018-02-22T08:15:06.851Z,102061
2018-02-22T08:17:35.567Z,102051
2018-02-22T08:20:03.721Z,102051
2018-02-22T08:22:31.891Z,102037
2018-02-22T08:25:00.058Z,102048
2018-02-22T08:27:28.333Z,102057
2018-02-22T08:29:56.466Z,102055
2018-02-22T08:32:25.401Z,102058
2018-02-22T08:34:53.873Z,102045
2018-02-22T08:37:22.009Z,102057
2018-02-22T08:39:50.945Z,102059
2018-02-22T08:42:19.102Z,102055
2018-02-22T08:44:47.239Z,102051
2018-02-22T08:47:16.174Z,102056
2018-02-22T08:49:44.305Z,102052
2018-02-22T08:52:13.235Z,102057
2018-02-22T08:54:41.655Z,102054
2018-02-22T08:57:09.792Z,102049
2018-02-22T08:59:37.974Z,102050
2018-02-22T09:02:06.171Z,102049
2018-02-22T09:04:34.337Z,102047
2018-02-22T09:07:02.486Z,102049
2018-02-22T09:09:31.159Z,102046
2018-02-22T09:11:59.294Z,102045
2018-02-22T09:14:28.618Z,102044
2018-02-22T09:16:56.754Z,102039
2018-02-22T09:19:25.788Z,102036
2018-02-22T09:21:54.046Z,102038
2018-02-22T09:24:22.186Z,102041
2018-02-22T09:26:50.354Z,102032
2018-02-22T09:29:18.486Z,102042
2018-02-22T09:31:46.662Z,102028
2018-02-22T09:34:14.801Z,102043
2018-02-22T09:36:43.707Z,102025
2018-02-22T09:39:11.884Z,102026
2018-02-22T09:41:40.074Z,102032
2018-02-22T09:44:08.255Z,102033
2018-02-22T09:46:36.467Z,102024
2018-02-22T09:49:05.371Z,102027
2018-02-22T09:51:33.530Z,102027
2018-02-22T09:54:02.446Z,102033
2018-02-22T09:56:30.619Z,102035
2018-02-22T09:58:58.770Z,102020
2018-02-22T10:01:27.699Z,102032
2018-02-22T10:03:55.868Z,102025
2018-02-22T10:06:24.045Z,102028
2018-02-22T10:08:52.223Z,102022
2018-02-22T10:11:20.457Z,102030
2018-02-22T10:13:49.360Z,102020
2018-02-22T10:16:17.555Z,102015
2018-02-22T10:18:45.765Z,102018
2018-02-22T10:21:13.898Z,102018
2018-02-22T10:23:42.090Z,102018
2018-02-22T10:26:10.238Z,102011
2018-02-22T10:28:38.454Z,102011
2018-02-22T10:31:06.600Z,102013
2018-02-22T10:33:34.738Z,101999
2018-02-22T10:36:02.922Z,102005
2018-02-22T10:38:31.118Z,102004
2018-02-22T10:40:59.878Z,102013
2018-02-22T10:43:28.046Z,101999
2018-02-22T10:45:56.409Z,102007
2018-02-22T10:48:25.387Z,102003
2018-02-22T10:50:54.047Z,102007
2018-02-22T10:53:22.213Z,102008
2018-02-22T10:55:50.362Z,102008
2018-02-22T10:58:18.544Z,101999
2018-02-22T11:00:52.149Z,102001
2018-02-22T11:03:20.319Z,102008
2018-02-22T11:05:48.492Z,102004
2018-02-22T11:08:16.641Z,102001
2018-02-22T11:10:44.875Z,102004
2018-02-22T11:13:13.017Z,102008
2018-02-22T11:15:41.211Z,102002
2018-02-22T11:18:09.383Z,102006
2018-02-22T11:20:37.538Z,102012
2018-02-22T11:23:05.714Z,102004
2018-02-22T11:25:33.858Z,101996
2018-02-22T11:28:02.053Z,102002
2018-02-22T11:30:30.223Z,101999
2018-02-22T11:32:58.978Z,102000
2018-02-22T11:35:27.141Z,102005
2018-02-22T11:37:56.050Z,101990
2018-02-22T11:40:24.214Z,101990
2018-02-22T11:42:52.389Z,101983
2018-02-22T11:45:20.535Z,101986
2018-02-22T11:47:48.706Z,101979
2018-02-22T11:50:17.623Z,101983
2018-02-22T11:52:46.487Z,101978
2018-02-22T11:55:14.649Z,101982
2018-02-22T11:57:42.786Z,101979
2018-02-22T12:00:10.962Z,101976
2018-02-22T12:02:39.101Z,101972
2018-02-22T12:05:07.858Z,101966
2018-02-22T12:07:36.018Z,101972
2018-02-22T12:10:04.155Z,101976
2018-02-22T12:12:32.325Z,101964
2018-02-22T12:15:00.467Z,101964
2018-02-22T12:17:29.365Z,101955
2018-02-22T12:19:57.541Z,101955
2018-02-22T12:22:25.687Z,101955
2018-02-22T12:24:54.595Z,101955
2018-02-22T12:27:24.295Z,101949
2018-02-22T12:29:53.194Z,101950
2018-02-22T12:32:22.098Z,101946
2018-02-22T12:34:50.269Z,101955
2018-02-22T12:37:18.408Z,101950
2018-02-22T12:39:46.567Z,101949
2018-02-22T12:42:14.711Z,101944
2018-02-22T12:44:43.239Z,101938
2018-02-22T12:47:11.382Z,101942
2018-02-22T12:49:39.546Z,101943
2018-02-22T12:52:07.721Z,101932
2018-02-22T12:54:35.865Z,101938
2018-02-22T12:57:04.256Z,101946
2018-02-22T12:59:32.422Z,101935
2018-02-22T13:02:00.605Z,101936
2018-02-22T13:04:28.799Z,101932
2018-02-22T13:06:56.940Z,101933
2018-02-22T13:09:25.110Z,101928
2018-02-22T13:11:53.250Z,101923
2018-02-22T13:14:22.729Z,101929
2018-02-22T13:16:50.850Z,101920
2018-02-22T13:19:19.022Z,101919
2018-02-22T13:21:47.417Z,101923
2018-02-22T13:24:15.553Z,101924
2018-02-22T13:26:44.472Z,101924
2018-02-22T13:29:12.668Z,101917
2018-02-22T13:31:40.829Z,101915
2018-02-22T13:34:31.667Z,101910
2018-02-22T13:36:59.909Z,101902
2018-02-22T13:39:28.158Z,101898
2018-02-22T13:41:56.323Z,101899
2018-02-22T13:44:43.226Z,101899
2018-02-22T13:47:12.145Z,101894
2018-02-22T13:49:58.274Z,101895
2018-02-22T13:52:26.470Z,101890
2018-02-22T13:54:54.571Z,101892
2018-02-22T13:57:22.772Z,101886
2018-02-22T13:59:50.914Z,101882
2018-02-22T14:02:26.805Z,101880
2018-02-22T14:04:54.940Z,101873
2018-02-22T14:07:23.078Z,101875
2018-02-22T14:09:51.377Z,101892
2018-02-22T14:12:20.278Z,101890
2018-02-22T14:14:48.487Z,101886
2018-02-22T14:17:16.689Z,101881
2018-02-22T14:19:44.826Z,101875
2018-02-22T14:22:12.961Z,101894
2018-02-22T14:24:41.910Z,101886
2018-02-22T14:27:20.042Z,101891
2018-02-22T14:29:48.315Z,101889
2018-02-22T14:32:17.349Z,101888
2018-02-22T14:34:45.507Z,101889
2018-02-22T14:37:13.647Z,101886
2018-02-22T14:39:42.092Z,101892
2018-02-22T14:42:10.782Z,101891
2018-02-22T14:44:39.430Z,101908
2018-02-22T14:47:07.862Z,101901
2018-02-22T14:49:36.798Z,101895
2018-02-22T14:52:04.966Z,101897
2018-02-22T14:54:33.164Z,101897
2018-02-22T14:57:01.331Z,101902
2018-02-22T14:59:29.496Z,101892
2018-02-22T15:01:57.686Z,101900
2018-02-22T15:04:25.826Z,101896
2018-02-22T15:06:54.068Z,101894
2018-02-22T15:09:22.213Z,101900
2018-02-22T15:11:50.389Z,101907
2018-02-22T15:14:18.533Z,101897
2018-02-22T15:16:46.669Z,101900
2018-02-22T15:19:14.897Z,101906
2018-02-22T15:21:43.431Z,101903
2018-02-22T15:24:12.541Z,101911
2018-02-22T15:26:41.502Z,101901
2018-02-22T15:29:10.418Z,101897
2018-02-22T15:31:39.379Z,101890
2018-02-22T15:34:07.527Z,101899
2018-02-22T15:36:35.706Z,101906
2018-02-22T15:39:03.850Z,101893
2018-02-22T15:41:31.999Z,101907
2018-02-22T15:51:00.275Z,101903
2018-02-22T15:53:28.438Z,101900
2018-02-22T15:55:56.574Z,101897
2018-02-22T15:58:24.799Z,101906
2018-02-22T16:00:53.046Z,101898
2018-02-22T16:03:21.195Z,101899
2018-02-22T16:05:49.382Z,101894
2018-02-22T16:08:17.517Z,101902
2018-02-22T16:10:45.754Z,101899
2018-02-22T16:13:14.101Z,101904
2018-02-22T16:15:42.962Z,101903
2018-02-22T16:18:11.952Z,101896
2018-02-22T16:20:40.118Z,101901
2018-02-22T16:23:08.278Z,101897
2018-02-22T16:25:36.406Z,101905
2018-02-22T16:28:04.587Z,101897
2018-02-22T16:30:32.734Z,101892
2018-02-22T16:33:01.694Z,101901
2018-02-22T16:35:29.859Z,101903
2018-02-22T16:37:58.118Z,101906
2018-02-22T16:40:26.345Z,101905
2018-02-22T16:42:55.246Z,101907
2018-02-22T16:45:23.442Z,101907
2018-02-22T16:47:51.626Z,101921
2018-02-22T16:50:19.769Z,101910
2018-02-22T16:52:48.231Z,101909
2018-02-22T16:55:16.541Z,101923
2018-02-22T16:57:45.142Z,101916
2018-02-22T17:00:13.316Z,101914
2018-02-22T17:02:41.557Z,101910
2018-02-22T17:05:10.734Z,101923
2018-02-22T17:07:39.108Z,101906
2018-02-22T17:10:08.146Z,101916
2018-02-22T17:12:36.448Z,101911
2018-02-22T17:15:04.585Z,101920
2018-02-22T17:17:45.761Z,101919
2018-02-22T17:20:13.909Z,101925
2018-02-22T17:22:42.081Z,101928
2018-02-22T17:25:10.230Z,101924
2018-02-22T17:27:44.014Z,101926
2018-02-22T17:30:18.050Z,101928
2018-02-22T17:32:46.973Z,101926
2018-02-22T17:35:16.865Z,101929
2018-02-22T17:37:46.558Z,101920
2018-02-22T17:40:14.833Z,101930
2018-02-22T17:42:58.753Z,101926
2018-02-22T17:45:26.911Z,101926
2018-02-22T17:47:55.072Z,101927
2018-02-22T17:50:23.254Z,101920
2018-02-22T17:52:51.402Z,101924
2018-02-22T17:55:19.573Z,101934
2018-02-22T17:57:47.734Z,101925
2018-02-22T18:00:15.875Z,101923
2018-02-22T18:02:44.525Z,101938
2018-02-22T18:05:12.678Z,101926
2018-02-22T18:07:40.872Z,101933
2018-02-22T18:10:09.033Z,101927
2018-02-22T18:12:37.250Z,101939
2018-02-22T18:15:05.389Z,101942
2018-02-22T18:17:33.991Z,101944
2018-02-22T18:20:02.594Z,101936
2018-02-22T18:22:30.758Z,101939
2018-02-22T18:24:58.887Z,101948
2018-02-22T18:27:27.048Z,101950
2018-02-22T18:29:55.227Z,101952
2018-02-22T18:32:23.421Z,101949
2018-02-22T18:34:51.559Z,101956
2018-02-22T18:37:25.226Z,101951
2018-02-22T18:39:53.382Z,101950
2018-02-22T18:42:21.549Z,101956
2018-02-22T18:44:55.181Z,101960
2018-02-22T18:47:23.326Z,101956
2018-02-22T18:49:51.489Z,101957
2018-02-22T18:52:19.639Z,101949
2018-02-22T18:54:47.889Z,101961
2018-02-22T18:57:16.005Z,101955
2018-02-22T18:59:44.734Z,101958
2018-02-22T19:02:13.658Z,101963
2018-02-22T19:04:41.790Z,101954
2018-02-22T19:07:09.946Z,101951
2018-02-22T19:09:38.086Z,101943
2018-02-22T19:12:07.195Z,101957
2018-02-22T19:14:35.331Z,101940
2018-02-22T19:20:02.139Z,101939
2018-02-22T19:22:30.334Z,101941
2018-02-22T19:24:58.561Z,101940
2018-02-22T19:27:26.842Z,101953
2018-02-22T19:29:54.996Z,101944
2018-02-22T19:32:23.129Z,101941
2018-02-22T19:34:51.308Z,101939
2018-02-22T19:37:20.214Z,101935
2018-02-22T19:39:49.234Z,101938
2018-02-22T19:42:17.412Z,101931
2018-02-22T19:44:45.547Z,101935
2018-02-22T19:47:15.031Z,101937
2018-02-22T19:49:43.197Z,101934
2018-02-22T19:52:11.329Z,101947
2018-02-22T19:54:39.498Z,101938
2018-02-22T19:57:08.055Z,101937
2018-02-22T19:59:36.968Z,101937
2018-02-22T20:02:05.108Z,101946
2018-02-22T20:04:34.053Z,101939
2018-02-22T20:07:02.200Z,101942
2018-02-22T20:09:30.385Z,101944
2018-02-22T20:11:58.543Z,101948
2018-02-22T20:14:26.690Z,101952
2018-02-22T20:16:55.628Z,101948
2018-02-22T20:19:23.762Z,101953
2018-02-22T20:21:52.668Z,101945
2018-02-22T20:24:20.821Z,101941
2018-02-22T20:26:49.743Z,101946
2018-02-22T20:29:17.979Z,101955
2018-02-22T20:31:46.885Z,101945
2018-02-22T20:34:15.027Z,101950
2018-02-22T20:36:43.194Z,101937
2018-02-22T20:39:11.334Z,101952
2018-02-22T20:41:39.495Z,101947
2018-02-22T20:44:07.643Z,101954
2018-02-22T20:46:35.787Z,101950
2018-02-22T20:49:04.017Z,101962
2018-02-22T20:51:36.741Z,101958
2018-02-22T20:54:04.896Z,101966
2018-02-22T20:56:33.025Z,101959
2018-02-22T20:59:01.191Z,101960
2018-02-22T21:01:29.326Z,101967
2018-02-22T21:03:57.476Z,101956
2018-02-22T21:06:25.646Z,101966
2018-02-22T21:08:53.792Z,101961
2018-02-22T21:11:21.931Z,101970
2018-02-22T21:13:50.962Z,101968
2018-02-22T21:16:19.125Z,101966
2018-02-22T21:18:47.498Z,101971
2018-02-22T21:21:16.559Z,101968
2018-02-22T21:23:44.735Z,101966
2018-02-22T21:26:13.247Z,101977
2018-02-22T21:28:41.401Z,101975
2018-02-22T21:31:10.334Z,101970
2018-02-22T21:33:38.509Z,101972
2018-02-22T21:36:06.647Z,101973
2018-02-22T21:38:34.879Z,101974
2018-02-22T21:41:03.120Z,101976
2018-02-22T21:43:31.346Z,101980
2018-02-22T21:45:59.475Z,101975
2018-02-22T21:48:27.625Z,101965
2018-02-22T21:50:55.911Z,101988
2018-02-22T21:53:24.090Z,101973
2018-02-22T21:55:52.225Z,101972
2018-02-22T21:58:21.171Z,101977
2018-02-22T22:00:49.319Z,101974
2018-02-22T22:03:17.498Z,101979
2018-02-22T22:05:45.670Z,101986
2018-02-22T22:08:13.796Z,101971
2018-02-22T22:10:42.962Z,101977
2018-02-22T22:13:11.726Z,101980
2018-02-22T22:15:39.858Z,101971
2018-02-22T22:18:08.786Z,101978
2018-02-22T22:20:36.941Z,101977
2018-02-22T22:23:05.106Z,101984
2018-02-22T22:25:33.279Z,101987
2018-02-22T22:28:01.428Z,101983
2018-02-22T22:30:30.370Z,101985
2018-02-22T22:32:58.501Z,101984
2018-02-22T22:35:27.407Z,101987
2018-02-22T22:37:55.643Z,101984
2018-02-22T22:40:23.774Z,101987
2018-02-22T22:42:51.917Z,101986
2018-02-22T22:45:20.855Z,101991
2018-02-22T22:47:49.067Z,101980
2018-02-22T22:50:17.978Z,101972
2018-02-22T22:52:46.206Z,101980
2018-02-22T22:55:14.350Z,101973
2018-02-22T22:57:42.485Z,101967
2018-02-22T23:00:11.427Z,101972
2018-02-22T23:02:39.583Z,101967
2018-02-22T23:05:07.718Z,101967
2018-02-22T23:07:36.650Z,101978
2018-02-22T23:10:04.821Z,101967
2018-02-22T23:12:32.951Z,101976
2018-02-22T23:15:02.600Z,101965
2018-02-22T23:17:30.742Z,101973
2018-02-22T23:19:59.647Z,101961
2018-02-22T23:22:27.818Z,101960
2018-02-22T23:24:56.015Z,101969
2018-02-22T23:27:24.146Z,101967
2018-02-22T23:29:53.083Z,101947
2018-02-22T23:32:21.226Z,101959
2018-02-22T23:34:49.357Z,101954
2018-02-22T23:37:17.510Z,101960
2018-02-22T23:39:45.645Z,101965
2018-02-22T23:42:25.561Z,101968
2018-02-22T23:44:54.462Z,101966
2018-02-22T23:47:23.766Z,101964
2018-02-22T23:49:52.771Z,101964
2018-02-22T23:52:20.922Z,101970
2018-02-22T23:54:49.834Z,101965
2018-02-22T23:57:18.014Z,101967
2018-02-22T23:59:46.150Z,101962
